Time;durP1;ratioP1;P1;durP2;ratioP2;P2;SDS_P1;SDS_P2;PMS_P1;PMS_P2;Temp;Humidity;BMP_temperature;BMP_pressure;BME280_temperature;BME280_humidity;BME280_pressure;Samples;Min_cycle;Max_cycle;Signal;HPM_P1;HPM_P2
2021/09/26 00:00:58;;;;;;;8.55;6.07;;;410.10;2355.20;;;;;;5093792;28;20024;-68
2021/09/26 00:03:23;;;;;;;9.30;6.82;;;409.90;2355.20;;;;;;5093471;28;20385;-70
2021/09/26 00:05:49;;;;;;;9.50;7.43;;;409.80;2355.20;;;;;;5093676;28;20020;-69
2021/09/26 00:08:15;;;;;;;12.00;7.38;;;409.80;2355.20;;;;;;5093163;28;20092;-70
2021/09/26 00:10:41;;;;;;;9.07;7.07;;;409.80;2355.20;;;;;;5093752;28;20093;-70
2021/09/26 00:13:07;;;;;;;8.10;6.72;;;409.80;2355.20;;;;;;5093805;28;20036;-69
2021/09/26 00:15:33;;;;;;;8.98;7.32;;;409.80;2355.20;;;;;;5093773;28;20024;-69
2021/09/26 00:17:59;;;;;;;10.45;8.00;;;409.60;2355.20;;;;;;5093610;28;20039;-70
2021/09/26 00:20:26;;;;;;;9.77;7.25;;;409.70;2355.20;;;;;;5093718;28;20397;-70
2021/09/26 00:22:52;;;;;;;11.13;7.30;;;409.70;2355.20;;;;;;5074578;28;20111;-70
2021/09/26 00:25:19;;;;;;;10.20;8.27;;;409.70;2355.20;;;;;;5093661;28;20096;-69
2021/09/26 00:27:45;;;;;;;16.60;8.15;;;409.70;2355.20;;;;;;5093626;28;20394;-70
2021/09/26 00:30:14;;;;;;;11.10;7.47;;;409.70;2355.20;;;;;;5094549;28;20382;-70
2021/09/26 00:32:41;;;;;;;11.98;7.63;;;409.70;2355.20;;;;;;5097438;28;20039;-69
2021/09/26 00:35:07;;;;;;;10.73;7.32;;;409.70;2355.20;;;;;;5097374;28;20111;-70
2021/09/26 00:37:32;;;;;;;12.27;7.38;;;409.70;2355.20;;;;;;5097210;28;20108;-70
2021/09/26 00:39:58;;;;;;;11.75;7.53;;;409.70;2355.20;;;;;;5097158;28;20450;-71
2021/09/26 00:42:24;;;;;;;8.25;6.95;;;409.70;2355.20;;;;;;5097626;28;20028;-70
2021/09/26 00:44:50;;;;;;;8.88;7.38;;;409.70;2355.20;;;;;;5097208;28;20028;-70
2021/09/26 00:47:16;;;;;;;8.43;6.95;;;409.70;2355.20;;;;;;5097511;28;20029;-70
2021/09/26 00:49:42;;;;;;;10.38;6.90;;;409.70;2355.20;;;;;;5097029;28;20366;-69
2021/09/26 00:52:08;;;;;;;8.70;6.80;;;409.70;2355.20;;;;;;5096830;28;20075;-70
2021/09/26 00:54:36;;;;;;;9.02;7.57;;;409.70;2355.20;;;;;;5097145;28;20024;-70
2021/09/26 00:57:03;;;;;;;10.75;7.40;;;409.60;2355.20;;;;;;5096631;28;20024;-69
2021/09/26 00:59:29;;;;;;;9.32;7.10;;;409.60;2355.20;;;;;;5097181;28;20039;-70
2021/09/26 01:01:55;;;;;;;8.82;6.07;;;409.60;2355.20;;;;;;5096934;28;20403;-70
2021/09/26 01:04:21;;;;;;;8.73;6.75;;;409.60;2355.20;;;;;;5096452;28;20466;-70
2021/09/26 01:07:09;;;;;;;8.88;7.10;;;409.60;2355.20;;;;;;5096992;28;20040;-70
2021/09/26 01:10:03;;;;;;;9.27;6.70;;;409.60;2355.20;;;;;;5078545;28;20032;-70
2021/09/26 01:12:53;;;;;;;9.27;6.93;;;409.60;2355.20;;;;;;5096573;28;20032;-70
2021/09/26 01:15:49;;;;;;;10.85;7.40;;;409.60;2355.20;;;;;;5096536;28;20031;-69
2021/09/26 01:18:48;;;;;;;9.93;8.10;;;409.60;2355.20;;;;;;5096740;28;20106;-69
2021/09/26 01:21:51;;;;;;;10.77;7.97;;;409.60;2355.20;;;;;;5096359;28;20044;-70
2021/09/26 01:24:19;;;;;;;10.85;8.13;;;409.60;2355.20;;;;;;5096396;28;20032;-70
2021/09/26 01:27:04;;;;;;;13.55;8.70;;;409.60;2355.20;;;;;;5096613;28;20108;-70
2021/09/26 01:29:49;;;;;;;16.05;10.05;;;409.60;2355.20;;;;;;5078170;28;20504;-70
2021/09/26 01:32:18;;;;;;;14.52;9.68;;;409.60;2355.20;;;;;;5096224;28;20040;-70
2021/09/26 01:34:50;;;;;;;15.65;9.85;;;409.60;2355.20;;;;;;5096167;28;20031;-70
2021/09/26 01:37:30;;;;;;;17.92;11.90;;;409.60;2355.20;;;;;;5096216;28;20016;-69
2021/09/26 01:40:09;;;;;;;17.27;12.15;;;409.60;2355.20;;;;;;5096030;28;20024;-70
2021/09/26 01:42:46;;;;;;;14.27;11.48;;;409.60;2355.20;;;;;;5095765;28;20032;-70
2021/09/26 01:45:33;;;;;;;21.90;12.48;;;409.60;2355.20;;;;;;5077627;28;20028;-70
2021/09/26 01:48:28;;;;;;;18.35;12.18;;;409.60;2355.20;;;;;;5095827;28;20020;-69
2021/09/26 01:50:58;;;;;;;17.95;12.68;;;409.60;2355.20;;;;;;5095057;28;20032;-70
2021/09/26 01:53:26;;;;;;;19.33;12.27;;;409.60;2355.20;;;;;;5095703;28;20032;-69
2021/09/26 01:55:53;;;;;;;16.05;11.90;;;409.60;2355.20;;;;;;5096125;28;20036;-70
2021/09/26 01:58:19;;;;;;;15.63;11.68;;;409.60;2355.20;;;;;;5095781;28;20488;-69
2021/09/26 02:00:46;;;;;;;15.93;11.57;;;409.60;2355.20;;;;;;5095756;28;20028;-70
2021/09/26 02:03:13;;;;;;;18.90;11.55;;;409.60;2355.20;;;;;;5095934;28;20039;-70
2021/09/26 02:05:44;;;;;;;15.95;10.65;;;409.60;2355.20;;;;;;5095553;28;20032;-69
2021/09/26 02:08:10;;;;;;;13.95;9.88;;;384.90;2329.60;;;;;;5095375;28;20020;-69
2021/09/26 02:10:37;;;;;;;16.20;9.77;;;384.80;2329.60;;;;;;5095620;28;20028;-70
2021/09/26 02:13:06;;;;;;;18.48;10.45;;;384.70;2329.60;;;;;;5095360;28;20032;-69
2021/09/26 02:15:33;;;;;;;12.50;9.20;;;384.60;2329.60;;;;;;5095460;28;20065;-69
2021/09/26 02:18:04;;;;;;;16.45;9.48;;;384.60;2329.60;;;;;;5095405;28;20060;-69
2021/09/26 02:20:30;;;;;;;16.92;9.43;;;384.60;2329.60;;;;;;5095247;28;20047;-69
2021/09/26 02:22:58;;;;;;;14.35;10.18;;;384.50;2329.60;;;;;;5077214;28;20538;-70
2021/09/26 02:25:24;;;;;;;14.80;9.88;;;384.60;2329.60;;;;;;5095380;28;20047;-70
2021/09/26 02:27:50;;;;;;;12.43;9.30;;;384.40;2329.60;;;;;;5095175;28;20030;-70
2021/09/26 02:30:17;;;;;;;14.30;9.25;;;384.50;2329.60;;;;;;5095193;28;20028;-70
2021/09/26 02:32:45;;;;;;;16.50;9.18;;;384.40;2329.60;;;;;;5094908;28;20081;-69
2021/09/26 02:35:12;;;;;;;13.20;8.88;;;384.40;2329.60;;;;;;5094534;28;20019;-70
2021/09/26 02:37:38;;;;;;;13.80;8.60;;;384.30;2329.60;;;;;;5095023;28;20111;-70
2021/09/26 02:40:08;;;;;;;12.43;8.45;;;384.20;2329.60;;;;;;5095042;28;20048;-70
2021/09/26 02:42:47;;;;;;;14.35;9.80;;;384.20;2329.60;;;;;;5094674;28;20031;-69
2021/09/26 02:45:22;;;;;;;10.57;8.77;;;384.20;2329.60;;;;;;5094953;28;20024;-69
2021/09/26 02:47:53;;;;;;;13.48;9.23;;;384.10;2329.60;;;;;;5094856;28;20095;-70
2021/09/26 02:50:20;;;;;;;15.50;9.05;;;384.10;2329.60;;;;;;5094999;28;20385;-69
2021/09/26 02:52:46;;;;;;;15.43;9.20;;;384.20;2329.60;;;;;;5093609;28;20032;-70
2021/09/26 02:55:14;;;;;;;12.10;8.52;;;384.10;2329.60;;;;;;5076299;28;20085;-70
2021/09/26 02:57:40;;;;;;;10.90;8.48;;;384.10;2329.60;;;;;;5094801;28;20027;-69
2021/09/26 03:00:08;;;;;;;10.55;8.35;;;384.00;2329.60;;;;;;5094765;28;20477;-68
2021/09/26 03:02:34;;;;;;;12.80;9.13;;;384.10;2329.60;;;;;;5094765;28;20028;-69
2021/09/26 03:05:01;;;;;;;12.48;8.77;;;384.10;2329.60;;;;;;5094375;28;20028;-70
2021/09/26 03:07:26;;;;;;;14.25;9.10;;;384.00;2329.60;;;;;;5094667;28;20419;-70
2021/09/26 03:09:53;;;;;;;12.57;9.63;;;384.10;2329.60;;;;;;5094326;28;20032;-70
2021/09/26 03:12:21;;;;;;;14.43;10.63;;;384.10;2329.60;;;;;;5094369;28;20508;-70
2021/09/26 03:14:49;;;;;;;14.13;10.18;;;384.10;2329.60;;;;;;5094326;28;20020;-70
2021/09/26 03:17:15;;;;;;;13.93;10.07;;;384.10;2329.60;;;;;;5093851;28;20107;-70
2021/09/26 03:19:42;;;;;;;14.15;10.63;;;384.10;2329.60;;;;;;5094132;28;20020;-70
2021/09/26 03:22:09;;;;;;;13.43;9.88;;;384.10;2329.60;;;;;;5094219;28;20059;-70
2021/09/26 03:24:35;;;;;;;13.43;9.75;;;384.10;2329.60;;;;;;5094028;28;20024;-70
2021/09/26 03:27:03;;;;;;;16.80;10.25;;;384.10;2329.60;;;;;;5094199;28;20039;-70
2021/09/26 03:29:32;;;;;;;13.35;9.75;;;384.10;2329.60;;;;;;5094094;28;20527;-70
2021/09/26 03:31:59;;;;;;;15.07;10.23;;;384.10;2329.60;;;;;;5094124;28;20036;-70
2021/09/26 03:34:25;;;;;;;12.70;9.57;;;384.10;2329.60;;;;;;5094132;28;20031;-70
2021/09/26 03:36:50;;;;;;;10.43;8.73;;;384.10;2329.60;;;;;;5094267;28;20027;-70
2021/09/26 03:39:16;;;;;;;10.85;8.38;;;384.00;2329.60;;;;;;5094375;28;20466;-70
2021/09/26 03:41:42;;;;;;;10.82;8.23;;;384.00;2329.60;;;;;;5094138;28;20513;-70
2021/09/26 03:44:08;;;;;;;10.90;7.95;;;384.00;2329.60;;;;;;5093847;28;20027;-70
2021/09/26 03:46:33;;;;;;;13.85;8.32;;;359.30;2329.60;;;;;;5093892;28;20374;-70
2021/09/26 03:48:59;;;;;;;12.77;8.48;;;359.30;2329.60;;;;;;5093757;28;20031;-69
2021/09/26 03:51:25;;;;;;;9.73;7.90;;;359.30;2329.60;;;;;;5093609;28;20032;-70
2021/09/26 03:53:51;;;;;;;11.60;8.02;;;359.30;2329.60;;;;;;5093690;28;20093;-70
2021/09/26 03:56:17;;;;;;;13.77;8.07;;;359.20;2329.60;;;;;;5093686;28;20420;-70
2021/09/26 03:58:42;;;;;;;11.60;8.98;;;359.10;2329.60;;;;;;5093933;28;20039;-70
2021/09/26 04:01:08;;;;;;;11.45;8.23;;;359.00;2329.60;;;;;;5093551;28;20028;-69
2021/09/26 04:03:34;;;;;;;10.30;8.13;;;359.00;2329.60;;;;;;5093769;28;20485;-69
2021/09/26 04:05:59;;;;;;;13.10;8.95;;;358.90;2329.60;;;;;;5097523;28;20028;-69
2021/09/26 04:08:25;;;;;;;12.20;8.82;;;358.90;2329.60;;;;;;5079530;28;20355;-69
2021/09/26 04:10:51;;;;;;;13.10;10.55;;;358.90;2329.60;;;;;;5079932;28;20028;-69
2021/09/26 04:13:16;;;;;;;17.02;11.65;;;358.90;2329.60;;;;;;5097658;28;20087;-69
2021/09/26 04:15:42;;;;;;;18.50;11.55;;;358.90;2329.60;;;;;;5097471;28;20031;-69
2021/09/26 04:18:08;;;;;;;16.25;10.85;;;358.90;2329.60;;;;;;5097810;28;20117;-69
2021/09/26 04:20:33;;;;;;;15.75;11.68;;;358.90;2329.60;;;;;;5078006;28;20032;-69
2021/09/26 04:22:59;;;;;;;20.95;12.93;;;358.90;2329.60;;;;;;5079350;28;20028;-69
2021/09/26 04:25:25;;;;;;;16.35;12.15;;;358.90;2329.60;;;;;;5079488;28;20085;-69
2021/09/26 04:27:56;;;;;;;16.60;10.25;;;358.90;2329.60;;;;;;5097455;28;20412;-69
2021/09/26 04:30:22;;;;;;;14.55;9.77;;;358.90;2329.60;;;;;;5097484;28;20126;-69
2021/09/26 04:32:48;;;;;;;15.40;9.95;;;358.90;2329.60;;;;;;5097465;28;20114;-69
2021/09/26 04:35:14;;;;;;;14.10;9.85;;;358.90;2329.60;;;;;;5097199;28;20111;-69
2021/09/26 04:37:40;;;;;;;14.65;10.25;;;358.90;2329.60;;;;;;5097419;28;20054;-69
2021/09/26 04:40:07;;;;;;;15.05;9.93;;;358.90;2329.60;;;;;;5079119;28;20036;-69
2021/09/26 04:42:33;;;;;;;15.25;10.40;;;358.90;2329.60;;;;;;5097432;28;20089;-69
2021/09/26 04:45:00;;;;;;;14.60;10.10;;;358.90;2329.60;;;;;;5097141;28;20382;-70
2021/09/26 04:47:25;;;;;;;25.80;12.65;;;358.90;2329.60;;;;;;5097085;28;20042;-70
2021/09/26 04:49:51;;;;;;;38.80;21.00;;;358.90;2329.60;;;;;;5097071;28;20382;-69
2021/09/26 04:52:17;;;;;;;16.15;10.73;;;358.90;2329.60;;;;;;5096963;28;20043;-70
2021/09/26 04:54:43;;;;;;;25.77;15.38;;;359.00;2329.60;;;;;;5097097;28;20020;-69
2021/09/26 04:57:08;;;;;;;25.75;14.38;;;359.00;2329.60;;;;;;5096972;28;20027;-69
2021/09/26 04:59:34;;;;;;;19.85;12.35;;;359.00;2329.60;;;;;;5078900;28;20047;-69
2021/09/26 05:02:00;;;;;;;18.15;10.73;;;359.10;2329.60;;;;;;5078893;28;20031;-69
2021/09/26 05:04:27;;;;;;;51.65;23.92;;;359.10;2329.60;;;;;;5096568;28;20028;-70
2021/09/26 05:06:53;;;;;;;18.92;12.13;;;359.10;2329.60;;;;;;5096830;28;20392;-70
2021/09/26 05:09:19;;;;;;;23.10;12.80;;;359.20;2329.60;;;;;;5096651;28;20031;-69
2021/09/26 05:11:45;;;;;;;21.42;10.80;;;359.10;2329.60;;;;;;5096791;28;20043;-69
2021/09/26 05:14:11;;;;;;;18.85;11.18;;;359.10;2329.60;;;;;;5096573;28;20032;-69
2021/09/26 05:16:37;;;;;;;15.95;10.68;;;359.10;2329.60;;;;;;5095690;28;20024;-70
2021/09/26 05:19:04;;;;;;;16.45;9.68;;;359.10;2329.60;;;;;;5096837;28;20027;-69
2021/09/26 05:21:30;;;;;;;13.93;9.80;;;359.10;2329.60;;;;;;5078255;28;20136;-69
2021/09/26 05:23:56;;;;;;;18.90;11.27;;;359.10;2329.60;;;;;;5078469;28;20047;-69
2021/09/26 05:26:22;;;;;;;14.82;10.57;;;359.10;2329.60;;;;;;5096529;28;20557;-70
2021/09/26 05:28:48;;;;;;;13.15;9.82;;;359.20;2329.60;;;;;;5096303;28;20047;-69
2021/09/26 05:31:14;;;;;;;12.98;10.27;;;359.30;2329.60;;;;;;5096358;28;20031;-69
2021/09/26 05:33:39;;;;;;;14.05;10.07;;;359.30;2329.60;;;;;;5096266;28;20431;-69
2021/09/26 05:36:05;;;;;;;15.77;11.73;;;384.10;2329.60;;;;;;5095804;28;20024;-70
2021/09/26 05:38:31;;;;;;;16.38;11.20;;;384.20;2329.60;;;;;;5096189;28;20032;-70
2021/09/26 05:40:57;;;;;;;14.18;10.30;;;384.30;2329.60;;;;;;5096328;28;20020;-70
2021/09/26 05:43:23;;;;;;;16.38;10.88;;;384.40;2329.60;;;;;;5095720;28;20024;-69
2021/09/26 05:45:49;;;;;;;14.23;10.27;;;384.50;2329.60;;;;;;5096328;28;20362;-69
2021/09/26 05:48:15;;;;;;;12.65;9.35;;;384.70;2329.60;;;;;;5095881;28;20027;-70
2021/09/26 05:50:41;;;;;;;14.50;10.68;;;384.80;2329.60;;;;;;5096165;28;20096;-69
2021/09/26 05:53:07;;;;;;;15.27;10.82;;;409.60;2355.20;;;;;;5095858;28;20039;-69
2021/09/26 05:55:32;;;;;;;15.80;11.73;;;409.70;2355.20;;;;;;5095967;28;20470;-69
2021/09/26 05:57:58;;;;;;;19.02;12.75;;;409.90;2355.20;;;;;;5096068;28;20032;-69
2021/09/26 06:00:26;;;;;;;17.70;12.93;;;410.10;2355.20;;;;;;5095948;28;20085;-70
2021/09/26 06:02:54;;;;;;;17.90;13.27;;;410.20;2355.20;;;;;;5095555;28;20074;-69
2021/09/26 06:05:22;;;;;;;17.63;13.10;;;410.40;2355.20;;;;;;5095563;28;20355;-69
2021/09/26 06:07:48;;;;;;;16.95;12.45;;;435.20;2355.20;;;;;;5095510;28;20032;-70
2021/09/26 06:10:14;;;;;;;19.98;13.32;;;435.40;2355.20;;;;;;5095662;28;20024;-69
2021/09/26 06:12:40;;;;;;;20.55;13.13;;;435.60;2355.20;;;;;;5095710;28;20055;-69
2021/09/26 06:15:07;;;;;;;22.58;14.15;;;435.80;2355.20;;;;;;5095699;28;20020;-70
2021/09/26 06:17:32;;;;;;;22.10;14.88;;;436.00;2355.20;;;;;;5095296;28;20039;-70
2021/09/26 06:19:59;;;;;;;20.10;14.38;;;436.10;2355.20;;;;;;5095371;28;20027;-70
2021/09/26 06:22:25;;;;;;;22.02;14.45;;;461.00;2380.80;;;;;;5095270;28;20094;-70
2021/09/26 06:24:53;;;;;;;22.45;14.15;;;461.10;2380.80;;;;;;5095600;28;20024;-70
2021/09/26 06:27:20;;;;;;;21.58;14.50;;;461.40;2380.80;;;;;;5094766;28;20016;-70
2021/09/26 06:29:46;;;;;;;20.05;13.95;;;486.50;2380.80;;;;;;5095045;28;20020;-69
2021/09/26 06:32:12;;;;;;;17.17;13.75;;;512.40;2380.80;;;;;;5095251;28;20071;-69
2021/09/26 06:34:38;;;;;;;16.63;13.40;;;538.50;2406.40;;;;;;5094967;28;20028;-70
2021/09/26 06:37:06;;;;;;;17.67;13.65;;;589.40;2380.80;;;;;;5094949;28;20458;-69
2021/09/26 06:39:32;;;;;;;;;;;640.20;2124.80;;;;;;5095592;28;20020;-70
2021/09/26 06:41:58;;;;;;;17.45;13.68;;;666.30;1971.20;;;;;;5094919;28;19904;-70
2021/09/26 06:44:24;;;;;;;16.60;12.80;;;716.80;1817.60;;;;;;5095011;28;20051;-70
2021/09/26 06:46:50;;;;;;;15.25;10.90;;;742.40;1689.60;;;;;;5094945;28;20024;-71
2021/09/26 06:49:16;;;;;;;13.18;9.40;;;768.30;1510.40;;;;;;5094819;28;20076;-71
2021/09/26 06:51:42;;;;;;;12.82;9.98;;;793.60;1510.40;;;;;;5095021;28;20355;-72
2021/09/26 06:54:07;;;;;;;13.20;10.80;;;819.30;1382.40;;;;;;5094836;28;20032;-71
2021/09/26 06:56:33;;;;;;;13.13;10.55;;;819.70;1280.00;;;;;;5094745;28;20059;-72
2021/09/26 06:58:59;;;;;;;14.43;10.55;;;820.10;1203.20;;;;;;5094767;28;20036;-72
2021/09/26 07:01:25;;;;;;;13.35;11.15;;;845.30;1152.00;;;;;;5094766;28;20020;-72
2021/09/26 07:03:51;;;;;;;13.27;11.23;;;870.50;1100.80;;;;;;5094492;28;20059;-73
2021/09/26 07:06:17;;;;;;;12.93;10.95;;;870.80;1100.80;;;;;;5094652;28;20031;-72
2021/09/26 07:08:42;;;;;;;13.45;10.57;;;870.50;1100.80;;;;;;5094354;28;20089;-72
2021/09/26 07:11:08;;;;;;;12.85;11.25;;;870.40;1075.20;;;;;;5094588;28;20554;-72
2021/09/26 07:13:34;;;;;;;15.25;11.23;;;819.90;1100.80;;;;;;5076253;28;20036;-72
2021/09/26 07:16:00;;;;;;;;;;;819.20;1177.60;;;;;;5095003;28;20025;-71
2021/09/26 07:18:26;;;;;;;16.88;12.15;;;793.60;1228.80;;;;;;5094571;28;19904;-71
2021/09/26 07:20:51;;;;;;;13.02;11.60;;;768.40;1254.40;;;;;;5093998;28;20032;-71
2021/09/26 07:23:17;;;;;;;16.08;11.63;;;743.00;1305.60;;;;;;5094128;28;20036;-71
2021/09/26 07:25:43;;;;;;;14.57;11.97;;;742.40;1356.80;;;;;;5094162;28;20035;-70
2021/09/26 07:28:09;;;;;;;20.37;12.93;;;717.30;1382.40;;;;;;5094192;28;20032;-70
2021/09/26 07:30:36;;;;;;;20.30;12.43;;;717.00;1408.00;;;;;;5094154;28;20501;-70
2021/09/26 07:33:02;;;;;;;14.88;11.90;;;692.00;1408.00;;;;;;5093871;28;20043;-70
2021/09/26 07:35:28;;;;;;;21.55;16.30;;;691.50;1433.60;;;;;;5093885;28;20027;-70
2021/09/26 07:37:54;;;;;;;18.23;12.63;;;691.20;1459.20;;;;;;5094149;28;20107;-70
2021/09/26 07:40:19;;;;;;;14.45;11.73;;;666.50;1510.40;;;;;;5093573;28;20051;-70
2021/09/26 07:42:45;;;;;;;12.93;11.27;;;666.30;1484.80;;;;;;5094177;28;20028;-70
2021/09/26 07:45:13;;;;;;;12.45;10.90;;;666.40;1536.00;;;;;;5094246;28;20023;-70
2021/09/26 07:47:39;;;;;;;13.30;10.73;;;666.50;1510.40;;;;;;5093973;28;20184;-70
2021/09/26 07:50:06;;;;;;;13.15;10.48;;;691.70;1459.20;;;;;;5093878;28;20020;-70
2021/09/26 07:52:32;;;;;;;12.70;9.75;;;717.20;1433.60;;;;;;5093605;28;20036;-70
2021/09/26 07:54:58;;;;;;;11.20;9.85;;;743.00;1433.60;;;;;;5093493;28;20089;-70
2021/09/26 07:57:25;;;;;;;12.52;8.77;;;793.60;1280.00;;;;;;5093805;28;20024;-71
2021/09/26 07:59:51;;;;;;;10.77;8.23;;;819.50;1203.20;;;;;;5093733;28;20020;-71
2021/09/26 08:02:17;;;;;;;9.10;7.53;;;870.40;1126.40;;;;;;5093717;28;20060;-70
2021/09/26 08:04:43;;;;;;;7.72;6.90;;;896.10;998.40;;;;;;5093831;28;20050;-71
2021/09/26 08:07:09;;;;;;;8.57;7.00;;;921.90;947.20;;;;;;5094177;28;20032;-72
2021/09/26 08:09:36;;;;;;;9.40;7.43;;;947.70;921.60;;;;;;5093735;28;20075;-72
2021/09/26 08:12:03;;;;;;;9.50;6.70;;;973.60;896.00;;;;;;5093477;28;20032;-72
2021/09/26 08:14:29;;;;;;;7.45;6.65;;;999.00;870.40;;;;;;5093572;28;20117;-70
2021/09/26 08:16:55;;;;;;;8.45;6.20;;;1049.60;793.60;;;;;;5093596;28;20486;-69
2021/09/26 08:19:22;;;;;;;6.93;5.72;;;1050.20;742.40;;;;;;5094287;28;20373;-69
2021/09/26 08:21:48;;;;;;;8.55;6.90;;;1050.40;716.80;;;;;;5093444;28;20055;-69
2021/09/26 08:24:14;;;;;;;8.10;6.03;;;1076.00;691.20;;;;;;5093527;28;20107;-70
2021/09/26 08:26:40;;;;;;;9.07;6.00;;;1101.30;665.60;;;;;;5093729;28;20043;-70
2021/09/26 08:29:06;;;;;;;7.95;5.43;;;1101.70;640.00;;;;;;5093503;28;20470;-71
2021/09/26 08:31:32;;;;;;;8.00;5.88;;;1126.70;640.00;;;;;;5093624;28;20020;-70
2021/09/26 08:33:57;;;;;;;6.18;5.57;;;1127.30;614.40;;;;;;5075197;28;20544;-69
2021/09/26 08:36:23;;;;;;;5.97;5.00;;;1126.80;588.80;;;;;;5093481;28;20020;-70
2021/09/26 08:38:49;;;;;;;6.10;4.78;;;1127.00;588.80;;;;;;5093452;28;20077;-70
2021/09/26 08:41:16;;;;;;;5.30;4.80;;;1152.40;563.20;;;;;;5093353;28;20012;-70
2021/09/26 08:43:42;;;;;;;7.40;4.80;;;1152.60;537.60;;;;;;5093369;28;20032;-69
2021/09/26 08:46:11;;;;;;;9.55;6.57;;;1152.10;563.20;;;;;;5093241;28;20020;-70
2021/09/26 08:48:38;;;;;;;8.82;5.63;;;1127.30;563.20;;;;;;5093393;28;20469;-70
2021/09/26 08:51:04;;;;;;;8.23;5.80;;;1152.80;537.60;;;;;;5093675;28;20055;-70
2021/09/26 08:53:30;;;;;;;11.68;7.63;;;1177.70;512.00;;;;;;5096790;28;20071;-69
2021/09/26 08:55:56;;;;;;;5.45;4.95;;;1178.10;512.00;;;;;;5078810;28;20028;-70
2021/09/26 08:58:22;;;;;;;7.28;4.72;;;1178.50;486.40;;;;;;5097415;28;20024;-70
2021/09/26 09:00:48;;;;;;;7.57;5.22;;;1204.00;486.40;;;;;;5096879;28;20020;-70
2021/09/26 09:03:15;;;;;;;6.65;4.97;;;1228.80;486.40;;;;;;5096229;28;20031;-70
2021/09/26 09:05:43;;;;;;;8.23;4.90;;;1204.10;460.80;;;;;;5096689;28;20031;-69
2021/09/26 09:08:13;;;;;;;5.00;4.50;;;1229.70;460.80;;;;;;5096756;28;20031;-69
2021/09/26 09:10:49;;;;;;;7.28;4.65;;;1229.30;486.40;;;;;;5096778;28;20091;-69
2021/09/26 09:13:39;;;;;;;5.22;4.45;;;1254.50;486.40;;;;;;5096222;28;20028;-69
2021/09/26 09:16:13;;;;;;;6.43;4.85;;;1255.20;486.40;;;;;;5096523;28;20081;-69
2021/09/26 09:18:44;;;;;;;7.70;4.60;;;1280.30;486.40;;;;;;5096614;28;20036;-69
2021/09/26 09:21:33;;;;;;;6.03;4.78;;;1280.60;486.40;;;;;;5096503;28;20539;-69
2021/09/26 09:24:10;;;;;;;9.43;6.22;;;1305.60;486.40;;;;;;5096557;28;20103;-69
2021/09/26 09:26:38;;;;;;;6.28;5.20;;;1305.60;486.40;;;;;;5096578;28;20020;-69
2021/09/26 09:29:05;;;;;;;7.55;4.65;;;1280.80;486.40;;;;;;5096364;28;20420;-69
2021/09/26 09:31:31;;;;;;;6.95;4.97;;;1280.60;486.40;;;;;;5096624;28;20036;-69
2021/09/26 09:33:57;;;;;;;5.38;4.80;;;1255.30;486.40;;;;;;5096442;28;20028;-68
2021/09/26 09:36:27;;;;;;;5.13;4.60;;;1255.30;486.40;;;;;;5096357;28;20089;-69
2021/09/26 09:39:08;;;;;;;5.82;4.95;;;1280.90;486.40;;;;;;5096179;28;20024;-69
2021/09/26 09:41:44;;;;;;;5.13;4.63;;;1305.80;486.40;;;;;;5096011;28;20028;-69
2021/09/26 09:44:13;;;;;;;6.30;4.47;;;1306.40;486.40;;;;;;5096196;28;20024;-69
2021/09/26 09:46:40;;;;;;;6.50;5.30;;;1306.50;486.40;;;;;;5096264;28;20028;-68
2021/09/26 09:49:12;;;;;;;5.13;4.60;;;1305.80;486.40;;;;;;5096078;28;20465;-70
2021/09/26 09:51:49;;;;;;;5.93;4.60;;;1280.90;486.40;;;;;;5096108;28;20081;-70
2021/09/26 09:54:15;;;;;;;6.97;5.32;;;1305.90;486.40;;;;;;5095867;28;20066;-69
2021/09/26 09:56:43;;;;;;;5.80;5.28;;;1306.10;486.40;;;;;;5096134;28;20036;-70
2021/09/26 09:59:12;;;;;;;7.80;5.65;;;1306.40;486.40;;;;;;5096003;28;20470;-69
2021/09/26 10:01:43;;;;;;;6.97;5.80;;;1306.50;486.40;;;;;;5095672;28;20032;-69
2021/09/26 10:04:10;;;;;;;6.22;5.32;;;1331.30;512.00;;;;;;5095832;28;20032;-70
2021/09/26 10:06:41;;;;;;;6.00;5.38;;;1331.60;512.00;;;;;;5095775;28;20027;-69
2021/09/26 10:09:23;;;;;;;5.90;4.60;;;1331.30;512.00;;;;;;5095674;28;20505;-69
2021/09/26 10:11:58;;;;;;;7.80;6.55;;;1306.20;486.40;;;;;;5095503;28;20388;-69
2021/09/26 10:14:29;;;;;;;21.40;15.50;;;1331.50;512.00;;;;;;5095668;28;20028;-69
2021/09/26 10:16:56;;;;;;;37.47;32.60;;;1306.10;486.40;;;;;;5077430;28;20416;-69
2021/09/26 10:19:24;;;;;;;7.80;6.05;;;1305.80;486.40;;;;;;5095544;28;20469;-69
2021/09/26 10:21:52;;;;;;;7.63;6.82;;;1306.40;486.40;;;;;;5077268;28;20431;-69
2021/09/26 10:24:23;;;;;;;4.97;4.30;;;1306.40;486.40;;;;;;5077154;28;20024;-70
2021/09/26 10:26:50;;;;;;;5.55;4.15;;;1306.20;486.40;;;;;;5095367;28;20346;-69
2021/09/26 10:29:19;;;;;;;5.80;4.40;;;1306.50;486.40;;;;;;5060497;28;20024;-70
2021/09/26 10:31:47;;;;;;;5.43;4.90;;;1332.10;512.00;;;;;;5095056;28;20439;-69
2021/09/26 10:34:13;;;;;;;9.15;7.50;;;1357.00;537.60;;;;;;5095561;28;20024;-70
2021/09/26 10:36:41;;;;;;;10.95;8.73;;;1331.50;512.00;;;;;;5094859;28;20036;-69
2021/09/26 10:39:08;;;;;;;17.42;13.57;;;1331.30;512.00;;;;;;5095189;28;20016;-69
2021/09/26 10:41:35;;;;;;;8.95;7.47;;;1331.60;512.00;;;;;;5077003;28;20095;-70
2021/09/26 10:44:26;;;;;;;14.88;11.40;;;1331.60;512.00;;;;;;5094941;28;20112;-69
2021/09/26 10:47:18;;;;;;;23.52;21.13;;;1331.50;512.00;;;;;;5094743;28;20023;-69
2021/09/26 10:49:53;;;;;;;8.90;8.00;;;1280.90;486.40;;;;;;5094796;28;20039;-69
2021/09/26 10:52:36;;;;;;;7.63;5.25;;;1280.40;486.40;;;;;;5094964;28;20020;-69
2021/09/26 10:55:14;;;;;;;76.82;62.58;;;1305.60;486.40;;;;;;5094576;28;20036;-70
2021/09/26 10:57:41;;;;;;;8.68;7.75;;;1331.60;512.00;;;;;;5076586;28;20077;-70
2021/09/26 11:00:08;;;;;;;34.55;31.38;;;1331.50;512.00;;;;;;5094879;28;20479;-70
2021/09/26 11:02:40;;;;;;;6.70;6.00;;;1280.80;486.40;;;;;;5094868;28;20111;-69
2021/09/26 11:05:27;;;;;;;5.25;4.75;;;1305.80;486.40;;;;;;5093974;28;20032;-69
2021/09/26 11:07:53;;;;;;;6.57;5.00;;;1280.40;486.40;;;;;;5094568;28;20545;-69
2021/09/26 11:10:40;;;;;;;5.22;4.72;;;1306.20;486.40;;;;;;5094346;28;20066;-69
2021/09/26 11:13:15;;;;;;;6.88;5.10;;;1331.60;512.00;;;;;;5094722;28;20035;-70
2021/09/26 11:16:08;;;;;;;7.80;7.00;;;1331.60;512.00;;;;;;5094071;28;20024;-69
2021/09/26 11:18:53;;;;;;;6.15;4.90;;;1356.80;537.60;;;;;;5094346;28;20092;-69
2021/09/26 11:21:38;;;;;;;6.85;5.90;;;1357.10;537.60;;;;;;5094174;28;20044;-69
2021/09/26 11:24:09;;;;;;;7.50;5.13;;;1331.50;512.00;;;;;;5094197;28;20031;-70
2021/09/26 11:27:17;;;;;;;5.80;4.80;;;1331.60;512.00;;;;;;5094135;28;20535;-69
2021/09/26 11:29:42;;;;;;;5.78;5.20;;;1357.00;537.60;;;;;;4992418;28;20041;-70
2021/09/26 11:32:10;;;;;;;4.43;4.03;;;1357.10;537.60;;;;;;4992723;28;20030;-70
2021/09/26 11:34:47;;;;;;;6.75;5.18;;;1357.30;537.60;;;;;;4976414;28;20026;-70
2021/09/26 11:37:13;;;;;;;6.65;4.20;;;1357.00;537.60;;;;;;4992439;28;20030;-69
2021/09/26 11:39:41;;;;;;;6.70;4.00;;;1306.50;486.40;;;;;;4992395;28;20626;-69
2021/09/26 11:42:32;;;;;;;4.20;3.80;;;1306.50;486.40;;;;;;4992583;28;20034;-70
2021/09/26 11:44:58;;;;;;;;;;;1331.80;512.00;;;;;;4992944;28;20069;-70
2021/09/26 11:47:25;;;;;;;5.00;4.20;;;1357.00;537.60;;;;;;4992289;28;20384;-70
2021/09/26 11:49:51;;;;;;;7.63;3.65;;;1357.00;537.60;;;;;;4992147;28;20069;-70
2021/09/26 11:52:20;;;;;;;12.20;4.43;;;1357.30;537.60;;;;;;4992270;28;20122;-70
2021/09/26 11:54:46;;;;;;;5.97;4.18;;;1357.30;537.60;;;;;;4992300;28;20026;-70
2021/09/26 11:57:12;;;;;;;4.70;4.30;;;1382.50;563.20;;;;;;4992286;28;20053;-70
2021/09/26 11:59:42;;;;;;;4.40;4.00;;;1382.70;563.20;;;;;;4992452;28;20105;-70
2021/09/26 12:02:16;;;;;;;4.95;3.97;;;1331.50;512.00;;;;;;4992190;28;20031;-69
2021/09/26 12:04:43;;;;;;;5.45;4.22;;;1332.10;512.00;;;;;;5074143;28;20109;-70
2021/09/26 12:07:10;;;;;;;6.82;3.90;;;1332.10;512.00;;;;;;5093793;28;20236;-71
2021/09/26 12:09:46;;;;;;;5.25;4.28;;;1356.80;537.60;;;;;;5094230;28;20031;-70
2021/09/26 12:12:18;;;;;;;5.90;3.78;;;1356.80;537.60;;;;;;5093791;28;20445;-70
2021/09/26 12:14:47;;;;;;;3.90;3.50;;;1280.40;486.40;;;;;;5093597;28;20030;-69
2021/09/26 12:17:21;;;;;;;4.70;3.70;;;1280.60;486.40;;;;;;5093824;28;20028;-69